This is the latest recevied weather packets stored in our database for station/object EA1RCG-11. If no packets are shown the sender has not sent any weather packets the latest 10 day(s).
| Time | Temp. | Humidity | Pressure | Rain* | Wind** | Luminosity | Snow |
|---|---|---|---|---|---|---|---|
| 1787746038 | 30° C | 51% | 970.1 hPa | - | - | - | - |
| 1787744238 | 33.33° C | 47% | 970.2 hPa | - | - | - | - |
| 1787742438 | 31.11° C | 52% | 970.7 hPa | - | - | - | - |
| 1787740638 | 41.11° C | 40% | 970.8 hPa | - | - | - | - |
| 1787738838 | 52.22° C | 30% | 971.4 hPa | - | - | - | - |
| 1787737037 | 51.11° C | 31% | 971.8 hPa | - | - | - | - |
| 1787735237 | 39.44° C | 40% | 972.1 hPa | - | - | - | - |
| 1787733437 | 47.78° C | 32% | 972.5 hPa | - | - | - | - |
| 1787731763 | 24.44° C | 55% | 972.8 hPa | - | - | - | - |
| 1787729837 | 21.11° C | 58% | 973.3 hPa | - | - | - | - |
| 1787728037 | 18.89° C | 64% | 973.7 hPa | - | - | - | - |
| 1787726237 | 18.33° C | 64% | 973.9 hPa | - | - | - | - |
| 1787724437 | 17.78° C | 64% | 974.2 hPa | - | - | - | - |
| 1787722637 | 17.78° C | 65% | 974 hPa | - | - | - | - |
| 1787720837 | 17.78° C | 65% | 974.3 hPa | - | - | - | - |
| 1787719036 | 18.33° C | 64% | 974.9 hPa | - | - | - | - |
| 1787717236 | 18.33° C | 65% | 975.3 hPa | - | - | - | - |
| 1787715436 | 17.78° C | 65% | 975.7 hPa | - | - | - | - |
| 1787713636 | 18.89° C | 64% | 976 hPa | - | - | - | - |
| 1787711836 | 18.89° C | 63% | 976.1 hPa | - | - | - | - |
| 1787710036 | 18.89° C | 63% | 976.2 hPa | - | - | - | - |
| 1787708236 | 19.44° C | 64% | 976.7 hPa | - | - | - | - |
| 1787706436 | 19.44° C | 63% | 977 hPa | - | - | - | - |
| 1787704636 | 20° C | 63% | 977.2 hPa | - | - | - | - |
| 1787702835 | 20° C | 62% | 977.3 hPa | - | - | - | - |
* Rain since midnight (hover to see other rain measurements)
** Current wind speed in m/s (hover to see current wind gust speed)